createdAt,value
2017-10-10T00:00:15.745Z,10.51
2017-10-10T00:01:15.741Z,10.49
2017-10-10T00:02:15.740Z,10.51
2017-10-10T00:03:15.924Z,10.53
2017-10-10T00:04:15.395Z,10.46
2017-10-10T00:05:16.034Z,10.42
2017-10-10T00:06:15.379Z,10.41
2017-10-10T00:07:16.024Z,10.33
2017-10-10T00:08:15.790Z,10.31
2017-10-10T00:09:15.682Z,10.39
2017-10-10T00:10:15.352Z,10.38
2017-10-10T00:11:15.668Z,10.27
2017-10-10T00:12:15.997Z,10.33
2017-10-10T00:13:15.484Z,10.33
2017-10-10T00:14:15.647Z,10.25
2017-10-10T00:15:15.841Z,10.13
2017-10-10T00:16:15.635Z,10.18
2017-10-10T00:17:15.953Z,10.13
2017-10-10T00:18:15.722Z,10.13
2017-10-10T00:19:15.938Z,10.28
2017-10-10T00:20:16.025Z,10.34
2017-10-10T00:21:15.273Z,10.24
2017-10-10T00:22:16.015Z,10.15
2017-10-10T00:23:15.259Z,10.07
2017-10-10T00:24:15.578Z,10.07
2017-10-10T00:25:15.896Z,10.03
2017-10-10T00:26:15.562Z,10.02
2017-10-10T00:27:16.079Z,9.92
2017-10-10T00:28:15.547Z,9.95
2017-10-10T00:29:15.543Z,9.94
2017-10-10T00:30:15.211Z,9.91
2017-10-10T00:31:15.851Z,9.91
2017-10-10T00:32:15.521Z,9.88
2017-10-10T00:33:15.519Z,9.88
2017-10-10T00:34:15.504Z,9.91
2017-10-10T00:35:15.500Z,9.85
2017-10-10T00:36:15.167Z,9.87
2017-10-10T00:37:15.161Z,9.85
2017-10-10T00:38:16.002Z,9.91
2017-10-10T00:39:15.469Z,9.82
2017-10-10T00:40:15.467Z,9.9
2017-10-10T00:41:15.790Z,9.84
2017-10-10T00:42:15.772Z,9.85
2017-10-10T00:43:15.545Z,9.81
2017-10-10T00:44:15.863Z,9.81
2017-10-10T00:45:15.679Z,9.91
2017-10-10T00:46:15.099Z,9.94
2017-10-10T00:47:15.416Z,10.07
2017-10-10T00:48:15.406Z,10.05
2017-10-10T00:49:15.083Z,10.05
2017-10-10T00:50:15.171Z,10.06
2017-10-10T00:51:15.714Z,10.06
2017-10-10T00:52:15.059Z,10.05
2017-10-10T00:53:15.703Z,10.06
2017-10-10T00:54:15.362Z,10.06
2017-10-10T00:55:15.680Z,10.09
2017-10-10T00:56:15.449Z,10.09
2017-10-10T00:57:15.022Z,10.05
2017-10-10T00:58:15.338Z,10.03
2017-10-10T00:59:15.004Z,10.1
2017-10-10T01:00:15.422Z,10.03
2017-10-10T01:01:15.646Z,9.94
2017-10-10T01:02:15.633Z,9.9
2017-10-10T01:03:14.977Z,9.76
2017-10-10T01:04:15.293Z,9.8
2017-10-10T01:05:15.385Z,9.67
2017-10-10T01:06:14.956Z,9.8
2017-10-10T01:07:15.272Z,9.8
2017-10-10T01:08:15.690Z,9.81
2017-10-10T01:09:15.258Z,9.74
2017-10-10T01:10:14.926Z,9.69
2017-10-10T01:11:15.344Z,9.69
2017-10-10T01:12:15.242Z,9.58
2017-10-10T01:13:15.007Z,9.67
2017-10-10T01:14:14.899Z,9.62
2017-10-10T01:15:15.212Z,9.64
2017-10-10T01:16:15.530Z,9.66
2017-10-10T01:17:15.624Z,9.59
2017-10-10T01:18:15.516Z,9.67
2017-10-10T01:19:15.509Z,9.67
2017-10-10T01:20:15.190Z,9.7
2017-10-10T01:21:15.274Z,9.69
2017-10-10T01:22:15.486Z,9.73
2017-10-10T01:23:14.836Z,9.87
2017-10-10T01:24:14.826Z,9.84
2017-10-10T01:25:15.480Z,9.85
2017-10-10T01:26:15.239Z,9.97
2017-10-10T01:27:15.453Z,9.92
2017-10-10T01:28:15.120Z,10.05
2017-10-10T01:29:14.892Z,10.02
2017-10-10T01:30:14.784Z,9.97
2017-10-10T01:31:15.199Z,10.03
2017-10-10T01:32:15.094Z,10.06
2017-10-10T01:33:15.407Z,10.03
2017-10-10T01:34:15.180Z,10.06
2017-10-10T01:35:15.072Z,9.99
2017-10-10T01:36:15.065Z,9.95
2017-10-10T01:37:15.061Z,9.94
2017-10-10T01:38:15.055Z,9.97
2017-10-10T01:39:15.146Z,10.02
2017-10-10T01:40:15.033Z,9.99
2017-10-10T01:41:15.029Z,10.03
2017-10-10T01:42:15.352Z,10.03
2017-10-10T01:43:15.336Z,10.05
2017-10-10T01:44:15.106Z,9.92
2017-10-10T01:45:15.000Z,9.84
2017-10-10T01:46:15.001Z,9.87
2017-10-10T01:47:15.307Z,9.84
2017-10-10T01:48:15.309Z,9.76
2017-10-10T01:49:14.648Z,9.8
2017-10-10T01:50:14.646Z,9.77
2017-10-10T01:51:14.955Z,9.67
2017-10-10T01:52:14.630Z,9.64
2017-10-10T01:53:15.264Z,9.56
2017-10-10T01:54:15.361Z,9.69
2017-10-10T01:55:15.034Z,9.63
2017-10-10T01:56:14.923Z,9.63
2017-10-10T01:57:14.914Z,9.66
2017-10-10T01:58:14.584Z,9.66
2017-10-10T01:59:14.924Z,9.7
2017-10-10T02:00:14.891Z,9.8
2017-10-10T02:01:14.887Z,9.66
2017-10-10T02:02:14.879Z,9.74
2017-10-10T02:03:14.876Z,9.7
2017-10-10T02:04:15.190Z,9.58
2017-10-10T02:05:15.188Z,9.54
2017-10-10T02:06:15.322Z,9.56
2017-10-10T02:07:15.168Z,9.58
2017-10-10T02:08:14.510Z,9.55
2017-10-10T02:09:14.603Z,9.48
2017-10-10T02:10:15.153Z,9.69
2017-10-10T02:11:14.813Z,9.69
2017-10-10T02:12:15.141Z,9.7
2017-10-10T02:13:14.483Z,9.69
2017-10-10T02:14:14.794Z,9.67
2017-10-10T02:15:15.108Z,9.69
2017-10-10T02:16:14.454Z,9.64
2017-10-10T02:17:14.773Z,9.67
2017-10-10T02:18:15.083Z,9.66
2017-10-10T02:19:15.182Z,9.64
2017-10-10T02:20:14.423Z,9.64
2017-10-10T02:21:14.416Z,9.69
2017-10-10T02:22:14.732Z,9.72
2017-10-10T02:23:14.734Z,9.76
2017-10-10T02:24:14.395Z,9.69
2017-10-10T02:25:14.488Z,9.76
2017-10-10T02:26:14.706Z,9.77
2017-10-10T02:27:14.704Z,9.77
2017-10-10T02:28:14.691Z,9.76
2017-10-10T02:29:14.708Z,9.77
2017-10-10T02:30:14.877Z,9.69
2017-10-10T02:31:14.668Z,9.8
2017-10-10T02:32:14.993Z,9.8
2017-10-10T02:33:15.079Z,9.7
2017-10-10T02:34:14.325Z,9.77
2017-10-10T02:35:14.741Z,9.76
2017-10-10T02:36:14.308Z,9.85
2017-10-10T02:37:14.625Z,9.8
2017-10-10T02:38:15.041Z,9.8
2017-10-10T02:39:14.293Z,9.66
2017-10-10T02:40:14.607Z,9.67
2017-10-10T02:41:14.694Z,9.64
2017-10-10T02:42:14.589Z,9.63
2017-10-10T02:43:14.582Z,9.7
2017-10-10T02:44:14.575Z,9.7
2017-10-10T02:45:14.575Z,9.64
2017-10-10T02:46:14.667Z,9.64
2017-10-10T02:47:14.556Z,9.73
2017-10-10T02:48:14.873Z,9.67
2017-10-10T02:49:14.540Z,9.8
2017-10-10T02:50:14.205Z,9.82
2017-10-10T02:51:14.521Z,9.76
2017-10-10T02:52:14.839Z,9.74
2017-10-10T02:53:14.190Z,9.73
2017-10-10T02:54:14.832Z,9.85
2017-10-10T02:55:14.495Z,9.81
2017-10-10T02:56:14.922Z,9.88
2017-10-10T02:57:14.588Z,9.84
2017-10-10T02:58:14.799Z,9.94
2017-10-10T02:59:14.464Z,9.85
2017-10-10T03:00:14.884Z,9.9
2017-10-10T03:01:14.458Z,9.84
2017-10-10T03:02:14.121Z,9.97
2017-10-10T03:03:14.762Z,10.02
2017-10-10T03:04:14.430Z,9.91
2017-10-10T03:05:14.742Z,9.94
2017-10-10T03:06:14.516Z,9.97
2017-10-10T03:07:14.083Z,9.92
2017-10-10T03:08:14.401Z,9.95
2017-10-10T03:09:14.072Z,9.94
2017-10-10T03:10:14.387Z,9.92
2017-10-10T03:11:14.381Z,9.95
2017-10-10T03:12:14.470Z,9.94
2017-10-10T03:13:14.888Z,10
2017-10-10T03:14:14.036Z,9.94
2017-10-10T03:15:14.678Z,9.92
2017-10-10T03:16:14.671Z,9.85
2017-10-10T03:17:14.336Z,9.74
2017-10-10T03:18:14.756Z,9.76
2017-10-10T03:19:14.097Z,9.72
2017-10-10T03:20:14.638Z,9.74
2017-10-10T03:21:14.307Z,9.73
2017-10-10T03:22:13.976Z,9.67
2017-10-10T03:23:14.291Z,9.63
2017-10-10T03:24:13.961Z,9.64
2017-10-10T03:25:13.955Z,9.64
2017-10-10T03:26:14.594Z,9.67
2017-10-10T03:27:14.586Z,9.64
2017-10-10T03:28:14.580Z,9.59
2017-10-10T03:29:14.252Z,9.7
2017-10-10T03:30:14.354Z,9.66
2017-10-10T03:31:14.563Z,9.62
2017-10-10T03:32:14.227Z,9.72
2017-10-10T03:33:14.217Z,9.67
2017-10-10T03:34:14.539Z,9.7
2017-10-10T03:35:13.983Z,9.63
2017-10-10T03:36:14.298Z,9.8
2017-10-10T03:37:14.189Z,9.72
2017-10-10T03:38:14.189Z,9.67
2017-10-10T03:39:13.856Z,9.64
2017-10-10T03:40:13.844Z,9.64
2017-10-10T03:41:14.593Z,9.73
2017-10-10T03:42:13.830Z,9.69
2017-10-10T03:43:14.565Z,9.69
2017-10-10T03:44:13.916Z,9.64
2017-10-10T03:45:14.570Z,9.63
2017-10-10T03:46:14.226Z,9.58
2017-10-10T03:47:14.120Z,9.58
2017-10-10T03:48:14.111Z,9.63
2017-10-10T03:49:14.106Z,9.56
2017-10-10T03:50:14.421Z,9.59
2017-10-10T03:51:14.287Z,9.56
2017-10-10T03:52:13.757Z,9.64
2017-10-10T03:53:14.172Z,9.67
2017-10-10T03:54:14.397Z,9.52
2017-10-10T03:55:13.733Z,9.56
2017-10-10T03:56:14.056Z,9.54
2017-10-10T03:57:14.469Z,9.52
2017-10-10T03:58:13.713Z,9.49
2017-10-10T03:59:13.704Z,9.55
2017-10-10T04:00:14.443Z,9.55
2017-10-10T04:01:14.050Z,9.48
2017-10-10T04:02:13.683Z,9.45
2017-10-10T04:03:13.676Z,9.48
2017-10-10T04:04:13.993Z,9.48
2017-10-10T04:05:14.424Z,9.45
2017-10-10T04:06:14.408Z,9.48
2017-10-10T04:07:13.971Z,9.51
2017-10-10T04:08:14.388Z,9.4
2017-10-10T04:09:13.965Z,9.44
2017-10-10T04:10:14.372Z,9.52
2017-10-10T04:11:13.944Z,9.55
2017-10-10T04:12:14.036Z,9.55
2017-10-10T04:13:13.926Z,9.62
2017-10-10T04:14:13.921Z,9.63
2017-10-10T04:15:13.917Z,9.62
2017-10-10T04:16:13.904Z,9.67
2017-10-10T04:17:13.898Z,9.62
2017-10-10T04:18:13.672Z,9.67
2017-10-10T04:19:13.559Z,9.64
2017-10-10T04:20:13.875Z,9.63
2017-10-10T04:21:13.546Z,9.63
2017-10-10T04:22:13.867Z,9.74
2017-10-10T04:23:13.532Z,9.67
2017-10-10T04:24:13.525Z,9.74
2017-10-10T04:25:13.521Z,9.76
2017-10-10T04:26:13.836Z,9.7
2017-10-10T04:27:14.152Z,9.74
2017-10-10T04:28:14.143Z,9.64
2017-10-10T04:29:14.152Z,9.67
2017-10-10T04:30:13.577Z,9.76
2017-10-10T04:31:13.899Z,9.66
2017-10-10T04:32:14.110Z,9.81
2017-10-10T04:33:13.791Z,9.8
2017-10-10T04:34:14.198Z,9.8
2017-10-10T04:35:13.766Z,9.76
2017-10-10T04:36:13.433Z,9.82
2017-10-10T04:37:13.526Z,9.77
2017-10-10T04:38:13.421Z,9.76
2017-10-10T04:39:13.834Z,9.82
2017-10-10T04:40:13.606Z,9.81
2017-10-10T04:41:13.723Z,9.88
2017-10-10T04:42:13.389Z,9.91
2017-10-10T04:43:14.030Z,9.84
2017-10-10T04:44:13.799Z,9.97
2017-10-10T04:45:13.690Z,9.95
2017-10-10T04:46:13.686Z,10.02
2017-10-10T04:47:13.681Z,9.99
2017-10-10T04:48:14.121Z,9.95
2017-10-10T04:49:13.661Z,10
2017-10-10T04:50:13.980Z,10.02
2017-10-10T04:51:13.324Z,10.06
2017-10-10T04:52:13.639Z,10.03
2017-10-10T04:53:13.969Z,9.91
2017-10-10T04:54:13.626Z,10
2017-10-10T04:55:13.619Z,9.92
2017-10-10T04:56:13.765Z,9.94
2017-10-10T04:57:13.613Z,9.92
2017-10-10T04:58:13.595Z,9.87
2017-10-10T04:59:13.591Z,9.87
2017-10-10T05:00:13.580Z,9.9
2017-10-10T05:01:13.585Z,9.88
2017-10-10T05:02:13.248Z,9.95
2017-10-10T05:03:13.238Z,9.84
2017-10-10T05:04:13.328Z,9.91
2017-10-10T05:05:13.899Z,9.94
2017-10-10T05:06:13.315Z,9.97
2017-10-10T05:07:13.210Z,9.88
2017-10-10T05:08:13.687Z,9.91
2017-10-10T05:09:14.038Z,9.97
2017-10-10T05:10:13.931Z,9.94
2017-10-10T05:11:13.929Z,9.8
2017-10-10T05:12:13.497Z,9.76
2017-10-10T05:13:13.820Z,9.81
2017-10-10T05:14:13.156Z,9.85
2017-10-10T05:15:13.350Z,9.92
2017-10-10T05:16:13.141Z,9.87
2017-10-10T05:17:13.463Z,9.9
2017-10-10T05:18:13.453Z,9.82
2017-10-10T05:19:13.443Z,9.91
2017-10-10T05:20:13.111Z,9.85
2017-10-10T05:21:13.861Z,9.84
2017-10-10T05:22:13.099Z,9.84
2017-10-10T05:23:13.412Z,9.76
2017-10-10T05:24:13.081Z,9.85
2017-10-10T05:25:13.406Z,9.85
2017-10-10T05:26:13.388Z,10.02
2017-10-10T05:27:13.061Z,9.99
2017-10-10T05:28:13.374Z,9.94
2017-10-10T05:29:13.472Z,9.99
2017-10-10T05:30:13.364Z,9.99
2017-10-10T05:31:13.028Z,9.9
2017-10-10T05:32:13.347Z,9.82
2017-10-10T05:33:13.664Z,9.76
2017-10-10T05:34:13.332Z,9.77
2017-10-10T05:35:13.645Z,9.87
2017-10-10T05:36:13.321Z,9.92
2017-10-10T05:37:13.314Z,9.91
2017-10-10T05:38:13.302Z,9.99
2017-10-10T05:39:13.400Z,9.92
2017-10-10T05:40:13.612Z,10.02
2017-10-10T05:41:13.382Z,10.07
2017-10-10T05:42:13.269Z,10.03
2017-10-10T05:43:13.264Z,10.02
2017-10-10T05:44:12.935Z,9.99
2017-10-10T05:45:13.247Z,10
2017-10-10T05:46:13.342Z,10
2017-10-10T05:47:12.913Z,10.03
2017-10-10T05:48:13.329Z,10.02
2017-10-10T05:49:12.896Z,10
2017-10-10T05:50:13.543Z,9.87
2017-10-10T05:51:12.982Z,9.91
2017-10-10T05:52:13.201Z,9.87
2017-10-10T05:53:13.189Z,9.88
2017-10-10T05:54:13.509Z,9.84
2017-10-10T05:55:13.178Z,9.88
2017-10-10T05:56:13.495Z,9.88
2017-10-10T05:57:13.161Z,9.97
2017-10-10T05:58:13.166Z,9.95
2017-10-10T05:59:13.149Z,9.92
2017-10-10T06:00:13.451Z,9.92
2017-10-10T06:01:13.119Z,9.91
2017-10-10T06:02:13.435Z,10
2017-10-10T06:03:12.882Z,9.92
2017-10-10T06:04:13.105Z,9.87
2017-10-10T06:05:13.441Z,9.94
2017-10-10T06:06:12.863Z,9.97
2017-10-10T06:07:13.547Z,9.9
2017-10-10T06:08:13.488Z,9.97
2017-10-10T06:09:13.059Z,9.9
2017-10-10T06:10:12.732Z,9.97
2017-10-10T06:11:13.369Z,9.88
2017-10-10T06:12:13.144Z,9.9
2017-10-10T06:13:13.032Z,9.85
2017-10-10T06:14:13.125Z,10
2017-10-10T06:15:12.695Z,9.95
2017-10-10T06:16:13.333Z,10.1
2017-10-10T06:17:13.102Z,10.06
2017-10-10T06:18:13.312Z,10.07
2017-10-10T06:19:13.093Z,10.12
2017-10-10T06:20:13.297Z,10.17
2017-10-10T06:21:12.650Z,10.25
2017-10-10T06:22:12.747Z,10.3
2017-10-10T06:23:13.059Z,10.28
2017-10-10T06:24:13.050Z,10.27
2017-10-10T06:25:13.149Z,10.24
2017-10-10T06:26:13.265Z,10.3
2017-10-10T06:27:13.028Z,10.27
2017-10-10T06:28:12.607Z,10.38
2017-10-10T06:29:13.331Z,10.48
2017-10-10T06:30:12.608Z,10.39
2017-10-10T06:31:13.228Z,10.42
2017-10-10T06:32:13.316Z,10.46
2017-10-10T06:33:12.561Z,10.58
2017-10-10T06:34:13.207Z,10.49
2017-10-10T06:35:12.871Z,10.49
2017-10-10T06:36:12.641Z,10.48
2017-10-10T06:37:13.171Z,10.53
2017-10-10T06:38:12.524Z,10.53
2017-10-10T06:39:12.518Z,10.45
2017-10-10T06:40:12.834Z,10.59
2017-10-10T06:41:12.831Z,10.55
2017-10-10T06:42:12.966Z,10.42
2017-10-10T06:43:13.229Z,10.41
2017-10-10T06:44:12.588Z,10.51
2017-10-10T06:45:12.472Z,10.46
2017-10-10T06:46:13.112Z,10.51
2017-10-10T06:47:12.461Z,10.49
2017-10-10T06:48:12.553Z,10.46
2017-10-10T06:49:12.764Z,10.58
2017-10-10T06:50:12.537Z,10.55
2017-10-10T06:51:12.856Z,10.61
2017-10-10T06:52:12.422Z,10.51
2017-10-10T06:53:12.414Z,10.59
2017-10-10T06:54:12.405Z,10.51
2017-10-10T06:55:12.400Z,10.58
2017-10-10T06:56:12.391Z,10.62
2017-10-10T06:57:13.052Z,10.64
2017-10-10T06:58:12.797Z,10.64
2017-10-10T06:59:12.699Z,10.67
2017-10-10T07:00:12.685Z,10.69
2017-10-10T07:01:12.678Z,10.65
2017-10-10T07:02:12.773Z,10.62
2017-10-10T07:03:12.346Z,10.72
2017-10-10T07:04:12.435Z,10.68
2017-10-10T07:05:12.327Z,10.71
2017-10-10T07:06:12.742Z,10.77
2017-10-10T07:07:12.953Z,10.68
2017-10-10T07:08:12.951Z,10.68
2017-10-10T07:09:13.088Z,10.76
2017-10-10T07:10:12.934Z,10.77
2017-10-10T07:11:12.603Z,10.76
2017-10-10T07:12:12.703Z,10.75
2017-10-10T07:13:12.588Z,10.77
2017-10-10T07:14:13.004Z,10.77
2017-10-10T07:15:12.897Z,10.75
2017-10-10T07:16:12.567Z,10.86
2017-10-10T07:17:12.558Z,10.82
2017-10-10T07:18:12.552Z,10.87
2017-10-10T07:19:12.868Z,10.77
2017-10-10T07:20:12.536Z,10.8
2017-10-10T07:21:12.530Z,10.83
2017-10-10T07:22:12.205Z,10.87
2017-10-10T07:23:12.195Z,10.87
2017-10-10T07:24:12.509Z,10.8
2017-10-10T07:25:12.504Z,10.79
2017-10-10T07:26:12.494Z,10.83
2017-10-10T07:27:12.490Z,10.83
2017-10-10T07:28:12.159Z,10.86
2017-10-10T07:29:12.475Z,10.86
2017-10-10T07:30:12.465Z,10.8
2017-10-10T07:31:12.557Z,10.89
2017-10-10T07:32:12.772Z,10.87
2017-10-10T07:33:12.542Z,10.9
2017-10-10T07:34:12.767Z,10.79
2017-10-10T07:35:12.436Z,10.8
2017-10-10T07:36:12.519Z,10.83
2017-10-10T07:37:12.415Z,10.82
2017-10-10T07:38:12.403Z,10.86
2017-10-10T07:39:12.496Z,10.79
2017-10-10T07:40:12.390Z,10.83
2017-10-10T07:41:12.386Z,10.92
2017-10-10T07:42:12.796Z,10.95
2017-10-10T07:43:12.367Z,10.94
2017-10-10T07:44:12.364Z,10.8
2017-10-10T07:45:12.364Z,10.87
2017-10-10T07:46:12.345Z,10.84
2017-10-10T07:47:12.338Z,10.94
2017-10-10T07:48:12.013Z,10.97
2017-10-10T07:49:12.426Z,10.87
2017-10-10T07:50:12.317Z,11.02
2017-10-10T07:51:11.988Z,11.07
2017-10-10T07:52:12.306Z,11.02
2017-10-10T07:53:12.298Z,11.15
2017-10-10T07:54:12.289Z,11.13
2017-10-10T07:55:12.607Z,11.05
2017-10-10T07:56:12.277Z,11.04
2017-10-10T07:57:12.264Z,11.16
2017-10-10T07:58:12.038Z,11.08
2017-10-10T07:59:12.253Z,11.18
2017-10-10T08:00:12.668Z,11.2
2017-10-10T08:01:12.241Z,11.25
2017-10-10T08:02:11.907Z,11.26
2017-10-10T08:03:11.902Z,11.35
2017-10-10T08:04:12.220Z,11.27
2017-10-10T08:05:12.307Z,11.27
2017-10-10T08:06:12.618Z,11.35
2017-10-10T08:07:12.519Z,11.25
2017-10-10T08:08:12.191Z,11.26
2017-10-10T08:09:11.956Z,11.33
2017-10-10T08:10:12.270Z,11.27
2017-10-10T08:11:11.843Z,11.33
2017-10-10T08:12:12.157Z,11.43
2017-10-10T08:13:11.936Z,11.34
2017-10-10T08:14:11.922Z,11.35
2017-10-10T08:15:12.140Z,11.44
2017-10-10T08:16:12.130Z,11.51
2017-10-10T08:17:11.802Z,11.45
2017-10-10T08:18:12.216Z,11.52
2017-10-10T08:19:11.885Z,11.48
2017-10-10T08:20:12.202Z,11.49
2017-10-10T08:21:12.416Z,11.58
2017-10-10T08:22:11.762Z,11.48
2017-10-10T08:23:12.076Z,11.56
2017-10-10T08:24:12.175Z,11.48
2017-10-10T08:25:12.064Z,11.52
2017-10-10T08:26:12.055Z,11.62
2017-10-10T08:27:12.050Z,11.62
2017-10-10T08:28:12.041Z,11.6
2017-10-10T08:29:11.716Z,11.62
2017-10-10T08:30:11.707Z,11.65
2017-10-10T08:31:11.699Z,11.62
2017-10-10T08:32:11.693Z,11.65
2017-10-10T08:33:12.106Z,11.74
2017-10-10T08:34:11.684Z,11.6
2017-10-10T08:35:11.672Z,11.62
2017-10-10T08:36:12.412Z,11.74
2017-10-10T08:37:11.654Z,11.73
2017-10-10T08:38:12.391Z,11.7
2017-10-10T08:39:12.382Z,11.71
2017-10-10T08:40:12.280Z,11.7
2017-10-10T08:41:11.726Z,11.77
2017-10-10T08:42:11.619Z,11.91
2017-10-10T08:43:11.712Z,11.99
2017-10-10T08:44:11.604Z,11.99
2017-10-10T08:45:12.032Z,11.97
2017-10-10T08:46:11.919Z,11.93
2017-10-10T08:47:11.906Z,11.93
2017-10-10T08:48:12.230Z,12
2017-10-10T08:49:12.003Z,12.02
2017-10-10T08:50:12.312Z,12
2017-10-10T08:51:11.879Z,12.02
2017-10-10T08:52:12.005Z,12.03
2017-10-10T08:53:12.186Z,11.95
2017-10-10T08:54:11.535Z,12.02
2017-10-10T08:55:12.181Z,11.97
2017-10-10T08:56:12.261Z,11.97
2017-10-10T08:57:11.513Z,12
2017-10-10T08:58:11.834Z,12.03
2017-10-10T08:59:12.150Z,12.03
2017-10-10T09:00:11.489Z,12.08
2017-10-10T09:01:12.127Z,12.11
2017-10-10T09:02:12.098Z,12.1
2017-10-10T09:03:11.798Z,12.1
2017-10-10T09:04:11.461Z,12.08
2017-10-10T09:05:11.880Z,12.17
2017-10-10T09:06:12.099Z,12.1
2017-10-10T09:07:11.862Z,12.11
2017-10-10T09:08:12.197Z,12.1
2017-10-10T09:09:11.426Z,12.07
2017-10-10T09:10:11.741Z,12.14
2017-10-10T09:11:11.734Z,12.11
2017-10-10T09:12:11.729Z,12.28
2017-10-10T09:13:11.502Z,12.23
2017-10-10T09:14:11.711Z,12.33
2017-10-10T09:15:11.385Z,12.33
2017-10-10T09:16:11.719Z,12.44
2017-10-10T09:17:11.691Z,12.45
2017-10-10T09:18:12.007Z,12.5
2017-10-10T09:19:11.674Z,12.55
2017-10-10T09:20:11.348Z,12.61
2017-10-10T09:21:11.984Z,12.54
2017-10-10T09:22:11.337Z,12.58
2017-10-10T09:23:11.430Z,12.58
2017-10-10T09:24:11.420Z,12.44
2017-10-10T09:25:11.952Z,12.51
2017-10-10T09:26:11.307Z,12.53
2017-10-10T09:27:11.942Z,12.54
2017-10-10T09:28:11.616Z,12.55
2017-10-10T09:29:11.925Z,12.66
2017-10-10T09:30:11.601Z,12.7
2017-10-10T09:31:11.270Z,12.81
2017-10-10T09:32:11.911Z,12.8
2017-10-10T09:33:11.900Z,12.94
2017-10-10T09:34:11.350Z,12.94
2017-10-10T09:35:11.573Z,12.9
2017-10-10T09:36:11.653Z,12.94
2017-10-10T09:37:11.883Z,12.9
2017-10-10T09:38:11.643Z,12.93
2017-10-10T09:39:11.214Z,12.88
2017-10-10T09:40:11.529Z,12.83
2017-10-10T09:41:11.521Z,12.73
2017-10-10T09:42:11.518Z,12.75
2017-10-10T09:43:11.928Z,12.76
2017-10-10T09:44:11.502Z,12.62
2017-10-10T09:45:11.592Z,12.69
2017-10-10T09:46:11.178Z,12.57
2017-10-10T09:47:11.479Z,12.58
2017-10-10T09:48:11.249Z,12.65
2017-10-10T09:49:11.142Z,12.68
2017-10-10T09:50:11.456Z,12.58
2017-10-10T09:51:11.463Z,12.62
2017-10-10T09:52:11.765Z,12.66
2017-10-10T09:53:11.112Z,12.78
2017-10-10T09:54:11.532Z,12.73
2017-10-10T09:55:11.743Z,12.86
2017-10-10T09:56:11.739Z,12.98
2017-10-10T09:57:11.086Z,13.03
2017-10-10T09:58:11.081Z,13.13
2017-10-10T09:59:11.393Z,13.16
2017-10-10T10:00:11.813Z,13.19
2017-10-10T10:01:11.379Z,13.17
2017-10-10T10:02:11.052Z,13.16
2017-10-10T10:03:11.466Z,13.13
2017-10-10T10:04:11.676Z,13.2
2017-10-10T10:05:11.130Z,13.21
2017-10-10T10:06:11.342Z,13.17
2017-10-10T10:07:11.340Z,13.28
2017-10-10T10:08:11.108Z,13.3
2017-10-10T10:09:10.999Z,13.21
2017-10-10T10:10:10.993Z,13.23
2017-10-10T10:11:11.630Z,13.3
2017-10-10T10:12:10.980Z,13.26
2017-10-10T10:13:11.295Z,13.21
2017-10-10T10:14:11.293Z,13.26
2017-10-10T10:15:11.602Z,13.31
2017-10-10T10:16:10.951Z,13.36
2017-10-10T10:17:11.586Z,13.39
2017-10-10T10:18:11.259Z,13.49
2017-10-10T10:19:11.249Z,13.52
2017-10-10T10:20:10.924Z,13.55
2017-10-10T10:21:11.238Z,13.61
2017-10-10T10:22:11.552Z,13.65
2017-10-10T10:23:11.225Z,13.67
2017-10-10T10:24:11.215Z,13.7
2017-10-10T10:25:11.527Z,13.7
2017-10-10T10:26:11.524Z,13.73
2017-10-10T10:27:11.293Z,13.79
2017-10-10T10:28:10.866Z,13.76
2017-10-10T10:29:11.181Z,13.79
2017-10-10T10:30:11.499Z,13.89
2017-10-10T10:31:11.175Z,13.89
2017-10-10T10:32:11.160Z,13.85
2017-10-10T10:33:10.830Z,13.85
2017-10-10T10:34:11.242Z,13.78
2017-10-10T10:35:10.917Z,13.79
2017-10-10T10:36:10.827Z,13.83
2017-10-10T10:37:11.449Z,13.79
2017-10-10T10:38:11.114Z,13.78
2017-10-10T10:39:11.432Z,13.8
2017-10-10T10:40:11.208Z,13.85
2017-10-10T10:41:11.245Z,13.94
2017-10-10T10:42:10.765Z,13.91
2017-10-10T10:43:11.507Z,13.89
2017-10-10T10:44:10.752Z,13.82
2017-10-10T10:45:11.166Z,13.85
2017-10-10T10:46:10.744Z,13.95
2017-10-10T10:47:10.834Z,13.97
2017-10-10T10:48:11.043Z,13.93
2017-10-10T10:49:11.368Z,13.94
2017-10-10T10:50:11.131Z,13.98
2017-10-10T10:51:10.702Z,14.04
2017-10-10T10:52:11.019Z,14.11
2017-10-10T10:53:11.010Z,14.18
2017-10-10T10:54:11.005Z,14.2
2017-10-10T10:55:11.316Z,14.18
2017-10-10T10:56:11.511Z,14.34
2017-10-10T10:57:11.305Z,14.4
2017-10-10T10:58:11.121Z,14.44
2017-10-10T10:59:10.647Z,14.48
2017-10-10T11:00:11.279Z,14.48
2017-10-10T11:01:11.382Z,14.67
2017-10-10T11:02:11.269Z,14.62
2017-10-10T11:03:10.618Z,14.78
2017-10-10T11:04:10.936Z,14.82
2017-10-10T11:05:11.247Z,14.89
2017-10-10T11:06:11.342Z,14.81
2017-10-10T11:07:11.232Z,14.73
2017-10-10T11:08:11.332Z,14.78
2017-10-10T11:09:10.897Z,14.81
2017-10-10T11:10:11.220Z,14.92
2017-10-10T11:11:11.214Z,14.93
2017-10-10T11:12:10.880Z,14.85
2017-10-10T11:13:11.396Z,14.89
2017-10-10T11:14:10.867Z,14.77
2017-10-10T11:15:10.859Z,14.89
2017-10-10T11:16:10.857Z,14.89
2017-10-10T11:17:10.943Z,14.9
2017-10-10T11:18:10.521Z,14.96
2017-10-10T11:19:11.153Z,14.94
2017-10-10T11:20:10.833Z,14.94
2017-10-10T11:21:10.815Z,14.97
2017-10-10T11:22:11.131Z,15.04
2017-10-10T11:23:11.322Z,14.99
2017-10-10T11:24:10.477Z,15.02
2017-10-10T11:25:10.899Z,14.97
2017-10-10T11:26:10.782Z,14.9
2017-10-10T11:27:10.457Z,14.99
2017-10-10T11:28:10.546Z,14.99
2017-10-10T11:29:11.094Z,15
2017-10-10T11:30:11.082Z,15.04
2017-10-10T11:31:10.745Z,15
2017-10-10T11:32:10.520Z,15.1
2017-10-10T11:33:10.841Z,15.05
2017-10-10T11:34:10.737Z,15.08
2017-10-10T11:35:10.724Z,15.07
2017-10-10T11:36:11.037Z,15.07
2017-10-10T11:37:10.804Z,15.07
2017-10-10T11:38:11.123Z,15.08
2017-10-10T11:39:10.469Z,15.07
2017-10-10T11:40:11.008Z,15.08
2017-10-10T11:41:11.004Z,15.12
2017-10-10T11:42:10.768Z,15.12
2017-10-10T11:43:10.661Z,15.14
2017-10-10T11:44:10.758Z,15.19
2017-10-10T11:45:10.752Z,15.1
2017-10-10T11:46:10.964Z,15.19
2017-10-10T11:47:10.735Z,15.22
2017-10-10T11:48:10.951Z,15.37
2017-10-10T11:49:10.779Z,15.39
2017-10-10T11:50:10.295Z,15.54
2017-10-10T11:51:10.608Z,15.63
2017-10-10T11:52:10.754Z,15.63
2017-10-10T11:53:10.927Z,15.81
2017-10-10T11:54:10.908Z,15.73
2017-10-10T11:55:10.682Z,15.81
2017-10-10T11:56:10.353Z,15.7
2017-10-10T11:57:10.569Z,15.63
2017-10-10T11:58:10.662Z,15.7
2017-10-10T11:59:11.000Z,15.66
2017-10-10T12:00:10.226Z,15.73
2017-10-10T12:01:10.219Z,15.67
2017-10-10T12:02:10.856Z,15.6
2017-10-10T12:03:10.954Z,15.55
2017-10-10T12:04:10.730Z,15.52
2017-10-10T12:05:10.518Z,15.55
2017-10-10T12:06:10.605Z,15.57
2017-10-10T12:07:10.496Z,15.67
2017-10-10T12:08:10.170Z,15.67
2017-10-10T12:09:10.162Z,15.69
2017-10-10T12:10:10.476Z,15.76
2017-10-10T12:11:10.472Z,15.81
2017-10-10T12:12:10.791Z,15.83
2017-10-10T12:13:10.455Z,15.88
2017-10-10T12:14:10.597Z,15.72
2017-10-10T12:15:10.770Z,15.78
2017-10-10T12:16:10.537Z,15.65
2017-10-10T12:17:10.436Z,15.7
2017-10-10T12:18:10.202Z,15.63
2017-10-10T12:19:10.417Z,15.62
2017-10-10T12:20:10.086Z,15.59
2017-10-10T12:21:10.825Z,15.6
2017-10-10T12:22:10.395Z,15.59
2017-10-10T12:23:10.066Z,15.6
2017-10-10T12:24:10.385Z,15.59
2017-10-10T12:25:10.154Z,15.63
2017-10-10T12:26:10.367Z,15.67
2017-10-10T12:27:10.468Z,15.75
2017-10-10T12:28:10.673Z,15.63
2017-10-10T12:29:10.344Z,15.76
2017-10-10T12:30:10.344Z,15.76
2017-10-10T12:31:10.011Z,15.85
2017-10-10T12:32:10.649Z,15.88
2017-10-10T12:33:10.320Z,15.88
2017-10-10T12:34:10.414Z,15.75
2017-10-10T12:35:10.084Z,15.78
2017-10-10T12:36:10.298Z,15.85
2017-10-10T12:37:10.617Z,15.8
2017-10-10T12:38:10.398Z,15.75
2017-10-10T12:39:10.279Z,15.73
2017-10-10T12:40:10.605Z,15.63
2017-10-10T12:41:10.046Z,15.67
2017-10-10T12:42:10.589Z,15.7
2017-10-10T12:43:10.576Z,15.67
2017-10-10T12:44:09.925Z,15.69
2017-10-10T12:45:09.915Z,15.81
2017-10-10T12:46:10.333Z,15.72
2017-10-10T12:47:10.225Z,15.72
2017-10-10T12:48:09.896Z,15.75
2017-10-10T12:49:09.889Z,15.81
2017-10-10T12:50:10.532Z,15.81
2017-10-10T12:51:09.878Z,15.91
2017-10-10T12:52:10.199Z,15.98
2017-10-10T12:53:10.189Z,16.12
2017-10-10T12:54:10.274Z,16.18
2017-10-10T12:55:09.849Z,16.25
2017-10-10T12:56:10.170Z,16.26
2017-10-10T12:57:10.160Z,16.31
2017-10-10T12:58:09.979Z,16.32
2017-10-10T12:59:09.823Z,16.26
2017-10-10T13:00:10.138Z,16.25
2017-10-10T13:01:09.910Z,16.18
2017-10-10T13:02:09.807Z,16.18
2017-10-10T13:03:10.152Z,16.1
2017-10-10T13:04:10.110Z,16.12
2017-10-10T13:05:10.635Z,15.99
2017-10-10T13:06:10.421Z,15.99